Time;durP1;ratioP1;P1;durP2;ratioP2;P2;SDS_P1;SDS_P2;PMS_P1;PMS_P2;Temp;Humidity;BMP_temperature;BMP_pressure;BME280_temperature;BME280_humidity;BME280_pressure;Samples;Min_cycle;Max_cycle;Signal;HPM_P1;HPM_P2
2021/09/23 00:00:10;;;;;;;15.02;11.43;;;15.30;84.80;;;;;;4992234;28;20026;-87
2021/09/23 00:05:10;;;;;;;14.60;11.80;;;15.30;85.00;;;;;;5002016;28;20034;-87
2021/09/23 00:07:36;;;;;;;14.45;11.52;;;15.30;85.10;;;;;;4982470;28;20034;-87
2021/09/23 00:10:02;;;;;;;16.33;11.85;;;15.30;85.30;;;;;;4998549;28;20088;-87
2021/09/23 00:12:28;;;;;;;19.33;12.98;;;15.40;85.70;;;;;;5031342;28;20022;-88
2021/09/23 00:14:53;;;;;;;19.15;12.65;;;15.30;86.30;;;;;;4981571;28;20037;-88
2021/09/23 00:17:19;;;;;;;19.98;12.65;;;15.40;85.80;;;;;;5014822;28;20064;-87
2021/09/23 00:19:45;;;;;;;16.67;12.02;;;15.40;85.90;;;;;;4998431;28;20033;-87
2021/09/23 00:22:10;;;;;;;17.23;12.30;;;15.40;85.80;;;;;;4995114;28;20053;-87
2021/09/23 00:24:36;;;;;;;17.05;12.55;;;15.40;85.60;;;;;;4998187;28;20056;-87
2021/09/23 00:27:02;;;;;;;17.23;12.15;;;15.40;85.60;;;;;;4998085;28;20468;-87
2021/09/23 00:29:28;;;;;;;17.92;11.88;;;15.40;85.50;;;;;;5021089;28;20488;-87
2021/09/23 00:31:53;;;;;;;17.45;12.32;;;15.40;85.30;;;;;;5003311;28;20088;-87
2021/09/23 00:34:19;;;;;;;16.38;11.85;;;15.40;85.40;;;;;;4980093;28;20026;-87
2021/09/23 00:36:45;;;;;;;16.50;12.50;;;15.30;85.10;;;;;;4995804;28;20069;-87
2021/09/23 00:39:11;;;;;;;18.35;12.88;;;15.30;84.90;;;;;;4979923;28;20031;-87
2021/09/23 00:41:36;;;;;;;17.42;13.15;;;15.30;85.10;;;;;;5002567;28;20066;-87
2021/09/23 00:44:17;;;;;;;18.42;12.90;;;15.20;85.20;;;;;;5012279;28;20030;-87
2021/09/23 00:46:44;;;;;;;18.27;12.68;;;15.20;85.20;;;;;;5014352;28;20021;-87
2021/09/23 00:49:10;;;;;;;18.50;13.18;;;15.10;85.40;;;;;;4997604;28;20030;-87
2021/09/23 00:51:36;;;;;;;19.48;12.95;;;15.10;85.50;;;;;;5003842;28;20559;-86
2021/09/23 00:54:02;;;;;;;18.70;13.20;;;15.10;85.60;;;;;;5008119;28;20037;-87
2021/09/23 00:56:28;;;;;;;19.40;13.50;;;15.10;86.10;;;;;;4986617;28;20483;-87
2021/09/23 00:58:54;;;;;;;21.80;13.90;;;15.10;85.80;;;;;;4997654;28;20061;-87
2021/09/23 01:01:19;;;;;;;24.10;14.88;;;15.10;85.90;;;;;;4981530;28;20029;-87
2021/09/23 01:03:45;;;;;;;21.95;15.05;;;15.00;86.00;;;;;;5014046;28;20037;-87
2021/09/23 01:06:11;;;;;;;22.65;15.50;;;15.00;85.60;;;;;;5012195;28;20479;-87
2021/09/23 01:08:40;;;;;;;22.80;15.02;;;15.00;86.10;;;;;;4994150;28;20042;-87
2021/09/23 01:11:06;;;;;;;21.77;15.40;;;15.00;86.00;;;;;;4994001;28;20069;-87
2021/09/23 01:13:32;;;;;;;25.55;16.48;;;14.90;86.10;;;;;;4997634;28;20065;-87
2021/09/23 01:15:57;;;;;;;22.67;15.80;;;14.90;86.10;;;;;;4977785;28;20111;-87
2021/09/23 01:18:23;;;;;;;20.27;15.23;;;14.90;86.00;;;;;;5000689;28;20558;-86
2021/09/23 01:20:49;;;;;;;24.02;16.00;;;14.80;85.90;;;;;;5001980;28;20050;-87
2021/09/23 01:23:15;;;;;;;23.20;16.63;;;14.80;86.00;;;;;;5021558;28;20033;-87
2021/09/23 01:25:42;;;;;;;21.83;16.42;;;14.70;86.30;;;;;;5021076;28;20394;-87
2021/09/23 01:28:07;;;;;;;22.88;16.45;;;14.60;86.30;;;;;;4994269;28;20472;-86
2021/09/23 01:30:33;;;;;;;22.67;16.75;;;14.60;86.50;;;;;;5009318;28;20119;-87
2021/09/23 01:33:00;;;;;;;24.70;16.52;;;14.60;86.70;;;;;;5033079;28;20394;-87
2021/09/23 01:35:25;;;;;;;18.73;14.60;;;14.60;87.00;;;;;;5032838;28;20147;-87
2021/09/23 01:37:51;;;;;;;21.90;15.40;;;14.60;86.80;;;;;;5023594;28;20467;-87
2021/09/23 01:40:17;;;;;;;23.60;16.30;;;14.60;87.20;;;;;;4996913;28;20030;-87
2021/09/23 01:42:44;;;;;;;22.50;16.00;;;14.60;87.50;;;;;;5005538;28;20017;-87
2021/09/23 01:45:12;;;;;;;22.95;16.70;;;14.60;87.50;;;;;;5017752;28;20088;-87
2021/09/23 01:47:38;;;;;;;24.38;15.88;;;14.60;88.00;;;;;;5020278;28;20041;-87
2021/09/23 01:50:05;;;;;;;24.27;16.67;;;14.70;87.80;;;;;;5036209;28;20080;-87
2021/09/23 01:52:30;;;;;;;23.92;16.80;;;14.60;88.10;;;;;;5034511;28;20084;-87
2021/09/23 01:54:56;;;;;;;23.70;16.00;;;14.60;88.10;;;;;;5021379;28;20419;-87
2021/09/23 01:57:22;;;;;;;21.95;16.45;;;14.70;88.00;;;;;;4996475;28;20113;-87
2021/09/23 01:59:50;;;;;;;24.00;16.67;;;14.70;88.00;;;;;;5006049;28;20025;-87
2021/09/23 02:02:16;;;;;;;24.05;16.77;;;14.70;88.00;;;;;;5018496;28;20045;-87
2021/09/23 02:04:41;;;;;;;23.75;16.63;;;14.70;88.00;;;;;;5029214;28;20470;-87
2021/09/23 02:07:07;;;;;;;24.42;15.73;;;14.70;88.00;;;;;;4991014;28;20030;-87
2021/09/23 02:09:33;;;;;;;22.77;15.85;;;14.70;88.00;;;;;;4990291;28;20057;-87
2021/09/23 02:12:00;;;;;;;27.50;17.77;;;14.70;88.00;;;;;;5002556;28;20131;-88
2021/09/23 02:14:26;;;;;;;26.67;17.13;;;14.60;88.10;;;;;;5019881;28;20021;-87
2021/09/23 02:16:52;;;;;;;22.77;15.82;;;14.70;87.90;;;;;;5012335;28;20129;-87
2021/09/23 02:19:18;;;;;;;28.02;17.05;;;14.60;87.90;;;;;;5010079;28;20113;-87
2021/09/23 02:21:43;;;;;;;27.00;17.60;;;14.60;87.90;;;;;;5021732;28;20057;-87
2021/09/23 02:24:09;;;;;;;26.30;15.82;;;14.60;87.50;;;;;;5030291;28;20036;-87
2021/09/23 02:26:35;;;;;;;26.92;16.58;;;14.60;87.40;;;;;;5012616;28;20113;-87
2021/09/23 02:29:01;;;;;;;28.77;17.00;;;14.50;87.20;;;;;;4996025;28;20475;-87
2021/09/23 02:31:26;;;;;;;24.20;16.88;;;14.40;87.30;;;;;;5033065;28;20047;-87
2021/09/23 02:33:52;;;;;;;28.40;17.15;;;14.40;87.30;;;;;;5021788;28;20466;-87
2021/09/23 02:36:18;;;;;;;27.27;17.52;;;14.30;87.60;;;;;;5023894;28;20037;-87
2021/09/23 02:38:44;;;;;;;27.20;16.95;;;14.30;87.80;;;;;;5002393;28;20029;-87
2021/09/23 02:41:10;;;;;;;27.15;17.30;;;14.20;88.00;;;;;;5010642;28;20030;-87
2021/09/23 02:43:36;;;;;;;29.80;17.02;;;14.20;88.10;;;;;;5036226;28;20018;-87
2021/09/23 02:46:02;;;;;;;29.27;17.42;;;14.20;87.90;;;;;;5020231;28;20030;-87
2021/09/23 02:48:27;;;;;;;27.90;17.58;;;14.20;88.00;;;;;;5012861;28;20117;-83
2021/09/23 02:50:53;;;;;;;28.60;17.25;;;14.10;88.50;;;;;;5009153;28;20535;-82
2021/09/23 02:53:19;;;;;;;26.05;18.33;;;14.10;88.40;;;;;;5002881;28;20061;-83
2021/09/23 02:55:45;;;;;;;26.05;17.40;;;14.10;88.30;;;;;;5019394;28;20022;-83
2021/09/23 02:58:11;;;;;;;29.65;18.20;;;14.00;88.40;;;;;;5009888;28;20056;-83
2021/09/23 03:00:37;;;;;;;30.27;19.00;;;14.00;88.70;;;;;;5023327;28;20029;-83
2021/09/23 03:03:04;;;;;;;26.60;17.55;;;13.90;88.90;;;;;;5012283;28;20022;-83
2021/09/23 03:05:29;;;;;;;28.52;17.55;;;13.90;89.00;;;;;;5023912;28;20423;-83
2021/09/23 03:07:55;;;;;;;28.00;17.75;;;13.90;89.10;;;;;;4998944;28;20030;-83
2021/09/23 03:10:21;;;;;;;36.50;18.70;;;13.90;89.20;;;;;;4975752;28;20030;-83
2021/09/23 03:12:47;;;;;;;27.60;17.65;;;14.00;89.30;;;;;;5002175;28;20080;-83
2021/09/23 03:15:12;;;;;;;26.98;17.35;;;14.00;89.30;;;;;;5011221;28;20034;-83
2021/09/23 03:17:38;;;;;;;29.83;18.40;;;14.00;89.80;;;;;;5011416;28;20033;-83
2021/09/23 03:20:04;;;;;;;26.85;16.75;;;14.00;89.60;;;;;;4981253;28;20031;-83
2021/09/23 03:22:30;;;;;;;30.25;17.58;;;14.00;89.60;;;;;;5001463;28;20079;-83
2021/09/23 03:24:56;;;;;;;27.02;17.27;;;14.00;89.50;;;;;;5018599;28;20112;-83
2021/09/23 03:27:22;;;;;;;27.50;17.75;;;14.00;89.40;;;;;;5024842;28;20395;-83
2021/09/23 03:29:47;;;;;;;24.52;16.88;;;14.00;89.60;;;;;;5001079;28;20034;-83
2021/09/23 03:32:13;;;;;;;30.98;18.73;;;14.00;89.70;;;;;;5003679;28;20137;-83
2021/09/23 03:34:39;;;;;;;24.55;17.27;;;14.00;89.80;;;;;;5011040;28;20543;-83
2021/09/23 03:37:04;;;;;;;30.58;17.80;;;14.00;89.90;;;;;;4981000;28;20030;-83
2021/09/23 03:39:30;;;;;;;27.55;17.23;;;14.00;89.70;;;;;;5024714;28;20498;-83
2021/09/23 03:41:56;;;;;;;23.65;16.42;;;14.00;89.50;;;;;;5007794;28;20101;-83
2021/09/23 03:44:22;;;;;;;26.75;16.95;;;14.00;89.40;;;;;;5007479;28;20029;-83
2021/09/23 03:46:48;;;;;;;27.67;18.05;;;14.00;89.60;;;;;;5001072;28;20045;-83
2021/09/23 03:49:13;;;;;;;25.58;16.73;;;14.00;89.60;;;;;;4990813;28;20030;-84
2021/09/23 03:51:39;;;;;;;27.25;17.40;;;14.00;89.60;;;;;;5010919;28;20045;-83
2021/09/23 03:54:05;;;;;;;29.35;18.27;;;14.00;90.00;;;;;;4994678;28;20037;-83
2021/09/23 03:56:31;;;;;;;27.80;18.75;;;14.00;90.00;;;;;;5027495;28;20030;-83
2021/09/23 03:58:56;;;;;;;26.55;18.00;;;14.00;90.00;;;;;;5006521;28;20033;-83
2021/09/23 04:01:22;;;;;;;27.05;17.98;;;14.00;90.20;;;;;;5026515;28;20020;-83
2021/09/23 04:03:48;;;;;;;30.52;18.20;;;13.90;90.10;;;;;;4996254;28;20026;-82
2021/09/23 04:06:13;;;;;;;26.55;17.98;;;13.90;90.00;;;;;;5036617;28;20164;-83
2021/09/23 04:08:39;;;;;;;26.98;17.20;;;13.90;90.10;;;;;;4991088;28;20514;-83
2021/09/23 04:11:05;;;;;;;25.70;18.17;;;13.90;90.20;;;;;;5010051;28;20434;-83
2021/09/23 04:13:30;;;;;;;26.65;17.10;;;13.90;90.10;;;;;;4974965;28;20404;-83
2021/09/23 04:16:43;;;;;;;24.13;17.42;;;13.90;90.00;;;;;;5000582;28;20133;-83
2021/09/23 04:19:09;;;;;;;27.77;17.88;;;13.90;90.10;;;;;;5011222;28;20112;-83
2021/09/23 04:21:35;;;;;;;25.23;17.52;;;13.80;90.30;;;;;;4994454;28;20457;-83
2021/09/23 04:24:00;;;;;;;26.75;18.08;;;13.80;90.10;;;;;;5011730;28;20037;-83
2021/09/23 04:26:26;;;;;;;24.85;16.85;;;13.80;90.20;;;;;;5020212;28;20069;-83
2021/09/23 04:28:52;;;;;;;27.83;17.92;;;13.80;90.30;;;;;;5010956;28;20421;-83
2021/09/23 04:31:18;;;;;;;29.92;18.48;;;13.80;90.40;;;;;;5011264;28;20298;-83
2021/09/23 04:33:44;;;;;;;26.50;17.42;;;13.70;90.30;;;;;;4995290;28;20026;-83
2021/09/23 04:36:09;;;;;;;26.80;17.63;;;13.70;90.20;;;;;;5011104;28;20113;-83
2021/09/23 04:38:35;;;;;;;26.80;18.08;;;13.70;90.30;;;;;;5011110;28;20117;-83
2021/09/23 04:41:01;;;;;;;29.63;18.60;;;13.70;90.30;;;;;;5026497;28;20382;-83
2021/09/23 04:43:26;;;;;;;29.23;18.38;;;13.70;90.30;;;;;;5025615;28;20471;-83
2021/09/23 04:45:52;;;;;;;28.38;18.73;;;13.60;90.40;;;;;;4993046;28;20022;-83
2021/09/23 04:48:18;;;;;;;29.55;18.70;;;13.60;90.40;;;;;;5029304;28;20034;-83
2021/09/23 04:50:44;;;;;;;27.05;18.42;;;13.60;90.50;;;;;;5030276;28;20030;-83
2021/09/23 04:53:10;;;;;;;27.27;17.75;;;13.50;90.60;;;;;;5014497;28;20042;-82
2021/09/23 04:55:35;;;;;;;26.42;17.45;;;13.50;90.60;;;;;;4997435;28;20042;-83
2021/09/23 04:58:01;;;;;;;25.30;17.42;;;13.50;90.60;;;;;;5012438;28;20345;-83
2021/09/23 05:00:27;;;;;;;26.50;17.55;;;13.40;90.60;;;;;;4995567;28;20239;-84
2021/09/23 05:02:53;;;;;;;30.27;19.95;;;13.50;90.70;;;;;;5008209;28;20541;-83
2021/09/23 05:05:18;;;;;;;27.08;18.10;;;13.40;90.70;;;;;;5010463;28;20095;-82
2021/09/23 05:07:44;;;;;;;26.05;18.67;;;13.40;90.70;;;;;;5012246;28;20172;-82
2021/09/23 05:10:10;;;;;;;26.60;18.33;;;13.30;90.70;;;;;;5029228;28;20026;-82
2021/09/23 05:12:36;;;;;;;28.67;19.10;;;13.40;90.80;;;;;;5012981;28;20479;-82
2021/09/23 05:15:02;;;;;;;26.90;18.83;;;13.30;90.80;;;;;;4996887;28;20027;-83
2021/09/23 05:17:27;;;;;;;27.33;19.35;;;13.30;90.90;;;;;;5029773;28;20478;-84
2021/09/23 05:20:09;;;;;;;26.30;18.73;;;13.20;91.00;;;;;;5008249;28;20025;-82
2021/09/23 05:22:35;;;;;;;30.38;20.42;;;13.20;91.10;;;;;;5002848;28;20022;-83
2021/09/23 05:25:01;;;;;;;31.38;20.98;;;13.20;91.10;;;;;;5013180;28;20423;-83
2021/09/23 05:27:27;;;;;;;30.75;21.20;;;13.20;91.40;;;;;;5029667;28;20122;-83
2021/09/23 05:29:53;;;;;;;25.23;18.65;;;13.20;91.50;;;;;;4981297;28;20026;-83
2021/09/23 05:32:18;;;;;;;29.20;19.40;;;13.20;91.40;;;;;;4999509;28;20810;-82
2021/09/23 05:34:44;;;;;;;25.38;18.85;;;13.10;91.60;;;;;;5029639;28;20109;-83
2021/09/23 05:37:10;;;;;;;28.70;19.45;;;13.20;91.50;;;;;;5018880;23;20050;-84
2021/09/23 05:39:36;;;;;;;28.02;19.83;;;13.20;91.70;;;;;;5014389;28;20042;-86
2021/09/23 05:42:02;;;;;;;29.33;20.35;;;13.10;91.60;;;;;;5014444;28;20038;-85
2021/09/23 05:44:28;;;;;;;26.95;20.13;;;13.10;91.80;;;;;;5029890;28;20084;-86
2021/09/23 05:46:55;;;;;;;26.88;19.17;;;13.10;91.80;;;;;;4997543;28;20030;-85
2021/09/23 05:49:22;;;;;;;27.88;19.20;;;13.20;91.80;;;;;;5013581;28;20032;-85
2021/09/23 05:51:48;;;;;;;26.65;19.27;;;13.20;91.90;;;;;;5030444;28;20409;-90
2021/09/23 05:54:14;;;;;;;28.70;19.73;;;13.20;91.90;;;;;;5015413;28;20116;-84
2021/09/23 05:56:41;;;;;;;30.15;19.83;;;13.20;91.90;;;;;;5017039;28;20137;-86
2021/09/23 05:59:08;;;;;;;28.15;20.27;;;13.20;92.00;;;;;;5017497;28;20022;-86
2021/09/23 06:01:34;;;;;;;25.55;18.63;;;13.20;92.00;;;;;;5054108;28;20006;-89
2021/09/23 06:03:59;;;;;;;30.63;20.15;;;13.20;92.00;;;;;;5038224;28;20006;-89
2021/09/23 06:06:25;;;;;;;26.67;19.80;;;13.20;92.00;;;;;;5037945;28;20057;-88
2021/09/23 06:08:51;;;;;;;29.20;18.88;;;13.20;92.00;;;;;;5041877;28;20026;-93
2021/09/23 06:11:16;;;;;;;26.75;19.30;;;13.20;92.00;;;;;;5032039;28;20022;-87
2021/09/23 06:13:43;;;;;;;33.28;20.30;;;13.30;92.10;;;;;;5024260;28;20022;-88
2021/09/23 06:16:10;;;;;;;27.75;19.85;;;13.20;92.10;;;;;;5031790;28;20722;-85
2021/09/23 06:18:36;;;;;;;29.48;20.60;;;13.30;92.30;;;;;;5020565;28;20101;-86
2021/09/23 06:21:04;;;;;;;29.92;20.67;;;13.20;92.30;;;;;;4997225;28;20045;-87
2021/09/23 06:23:29;;;;;;;32.00;21.50;;;13.20;92.40;;;;;;5030114;28;20030;-86
2021/09/23 06:25:55;;;;;;;29.38;20.50;;;13.30;92.50;;;;;;5029728;28;20026;-86
2021/09/23 06:28:21;;;;;;;32.28;22.63;;;13.20;92.50;;;;;;5013713;28;20039;-85
2021/09/23 06:30:47;;;;;;;29.02;20.27;;;13.30;92.70;;;;;;5013026;28;20033;-85
2021/09/23 06:33:13;;;;;;;27.90;20.27;;;13.30;92.70;;;;;;5013436;28;20113;-86
2021/09/23 06:35:38;;;;;;;27.90;20.67;;;13.30;92.70;;;;;;5013235;28;20121;-87
2021/09/23 06:38:04;;;;;;;29.38;20.65;;;13.30;92.80;;;;;;5012636;28;20050;-85
2021/09/23 06:40:30;;;;;;;27.75;19.67;;;13.30;92.80;;;;;;5014077;28;20080;-86
2021/09/23 06:42:55;;;;;;;25.60;18.63;;;13.40;92.90;;;;;;5029198;28;20489;-85
2021/09/23 06:45:21;;;;;;;29.27;21.00;;;13.40;92.90;;;;;;5027209;28;20029;-85
2021/09/23 06:47:47;;;;;;;29.30;20.42;;;13.50;93.00;;;;;;5012722;28;20034;-86
2021/09/23 06:50:14;;;;;;;29.30;21.30;;;13.50;93.10;;;;;;5012201;28;20032;-85
2021/09/23 06:52:40;;;;;;;28.50;20.08;;;13.50;93.20;;;;;;5012527;28;20030;-86
2021/09/23 06:55:06;;;;;;;29.83;21.02;;;13.60;93.20;;;;;;5012676;28;20032;-87
2021/09/23 06:57:32;;;;;;;30.13;20.60;;;13.60;93.30;;;;;;5013292;28;20045;-86
2021/09/23 06:59:58;;;;;;;32.10;23.35;;;13.60;93.40;;;;;;5009092;28;20026;-86
2021/09/23 07:02:23;;;;;;;36.85;23.92;;;13.70;93.80;;;;;;5013042;28;20022;-85
2021/09/23 07:04:49;;;;;;;32.38;23.98;;;13.70;94.00;;;;;;5029200;28;20390;-86
2021/09/23 07:07:15;;;;;;;35.13;23.88;;;13.80;93.90;;;;;;5012562;28;20029;-85
2021/09/23 07:09:40;;;;;;;31.73;22.95;;;13.80;94.00;;;;;;5003599;28;20030;-84
2021/09/23 07:12:06;;;;;;;29.27;21.17;;;13.80;94.00;;;;;;4991371;28;20074;-85
2021/09/23 07:14:32;;;;;;;31.73;22.85;;;13.90;94.00;;;;;;5005865;28;20037;-86
2021/09/23 07:16:57;;;;;;;33.58;24.65;;;14.00;94.20;;;;;;5011567;28;20489;-86
2021/09/23 07:19:23;;;;;;;36.42;23.13;;;14.00;94.30;;;;;;5011045;28;20569;-88
2021/09/23 07:21:49;;;;;;;30.55;23.08;;;14.10;94.40;;;;;;5007437;28;20026;-87
2021/09/23 07:24:14;;;;;;;34.47;23.67;;;14.10;94.40;;;;;;4983674;28;20050;-86
2021/09/23 07:26:40;;;;;;;37.78;24.95;;;14.10;94.50;;;;;;4997702;28;20049;-86
2021/09/23 07:29:07;;;;;;;36.83;25.40;;;14.20;94.80;;;;;;4995270;28;20084;-86
2021/09/23 07:31:33;;;;;;;36.17;24.05;;;14.20;94.90;;;;;;5028716;28;20030;-87
2021/09/23 07:33:59;;;;;;;31.77;23.70;;;14.30;94.90;;;;;;5011368;28;20441;-88
2021/09/23 07:36:24;;;;;;;34.22;24.77;;;14.30;95.00;;;;;;5015535;28;20203;-84
2021/09/23 07:38:50;;;;;;;43.13;27.05;;;14.40;95.00;;;;;;4995312;28;20054;-91
2021/09/23 07:41:16;;;;;;;35.25;25.23;;;14.40;95.30;;;;;;5003292;28;20492;-86
2021/09/23 07:43:42;;;;;;;32.78;23.88;;;14.50;95.30;;;;;;5015148;28;20034;-86
2021/09/23 07:46:07;;;;;;;34.17;25.05;;;14.60;95.40;;;;;;4995008;28;20486;-86
2021/09/23 07:48:33;;;;;;;38.75;27.15;;;14.70;95.50;;;;;;5024573;28;20025;-86
2021/09/23 07:50:59;;;;;;;41.47;27.40;;;14.70;95.50;;;;;;5011605;28;20030;-87
2021/09/23 07:53:28;;;;;;;46.58;28.70;;;14.80;95.70;;;;;;5014322;28;20022;-86
2021/09/23 07:55:54;;;;;;;37.08;25.80;;;14.80;95.80;;;;;;5029925;28;20128;-86
2021/09/23 07:58:20;;;;;;;35.85;26.90;;;14.90;95.70;;;;;;5025268;28;20053;-86
2021/09/23 08:00:45;;;;;;;36.53;25.75;;;15.00;95.80;;;;;;5001571;28;20022;-85
2021/09/23 08:03:11;;;;;;;41.25;26.67;;;15.10;95.80;;;;;;5025928;28;20022;-86
2021/09/23 08:05:38;;;;;;;36.97;25.58;;;15.10;95.90;;;;;;4991974;28;20038;-85
2021/09/23 08:08:04;;;;;;;42.22;27.08;;;15.20;95.90;;;;;;4995322;28;20022;-86
2021/09/23 08:10:30;;;;;;;42.10;26.15;;;15.30;96.00;;;;;;5010880;28;20029;-87
2021/09/23 08:12:56;;;;;;;35.80;25.38;;;15.40;96.10;;;;;;5014660;28;20554;-86
2021/09/23 08:15:22;;;;;;;36.38;25.08;;;15.50;96.10;;;;;;5015159;28;20096;-88
2021/09/23 08:17:47;;;;;;;32.15;23.63;;;15.50;96.00;;;;;;4991145;28;20034;-85
2021/09/23 08:20:13;;;;;;;30.60;23.08;;;15.60;95.90;;;;;;5027919;28;20030;-88
2021/09/23 08:22:40;;;;;;;35.85;25.88;;;15.70;95.90;;;;;;5015164;28;20025;-87
2021/09/23 08:25:07;;;;;;;30.70;22.67;;;15.80;95.80;;;;;;5020822;28;20540;-87
2021/09/23 08:27:32;;;;;;;31.25;23.50;;;15.90;95.80;;;;;;5034319;28;20076;-86
2021/09/23 08:29:58;;;;;;;32.03;22.25;;;15.90;95.70;;;;;;5034936;28;20029;-86
2021/09/23 08:32:24;;;;;;;28.70;20.35;;;16.00;95.60;;;;;;5034925;28;20036;-86
2021/09/23 08:34:51;;;;;;;30.17;19.67;;;16.10;95.60;;;;;;5009211;28;20076;-86
2021/09/23 08:37:17;;;;;;;29.60;19.77;;;16.20;95.50;;;;;;5022821;28;20148;-86
2021/09/23 08:39:43;;;;;;;28.38;19.80;;;16.30;95.40;;;;;;5036953;28;20021;-85
2021/09/23 08:42:09;;;;;;;25.52;18.80;;;16.40;95.20;;;;;;5022445;28;20026;-86
2021/09/23 08:44:36;;;;;;;24.25;17.60;;;16.40;95.20;;;;;;4996177;28;20026;-86
2021/09/23 08:47:03;;;;;;;28.02;18.45;;;16.50;94.90;;;;;;5036316;28;20493;-86
2021/09/23 08:49:29;;;;;;;28.05;19.10;;;16.50;94.80;;;;;;5032302;28;20028;-85
2021/09/23 08:51:55;;;;;;;28.48;20.40;;;16.60;94.80;;;;;;5042291;28;20034;-86
2021/09/23 08:54:21;;;;;;;26.48;19.50;;;16.60;94.60;;;;;;5035275;28;20030;-86
2021/09/23 08:56:47;;;;;;;27.02;18.60;;;16.60;94.50;;;;;;5028055;28;20034;-86
2021/09/23 08:59:14;;;;;;;23.23;17.55;;;16.70;94.50;;;;;;5029202;28;20151;-86
2021/09/23 09:01:50;;;;;;;26.38;20.10;;;16.70;94.50;;;;;;5029709;28;20466;-87
2021/09/23 09:04:17;;;;;;;28.15;21.50;;;16.80;94.40;;;;;;5030723;28;20501;-88
2021/09/23 09:06:56;;;;;;;26.27;20.52;;;16.80;94.20;;;;;;5016272;28;20025;-85
2021/09/23 09:09:22;;;;;;;25.70;18.73;;;16.80;94.20;;;;;;5008413;28;20033;-85
2021/09/23 09:11:52;;;;;;;26.95;20.40;;;16.90;94.20;;;;;;5014281;28;20029;-86
2021/09/23 09:14:29;;;;;;;27.20;19.27;;;16.90;94.10;;;;;;4989795;28;20505;-86
2021/09/23 09:17:05;;;;;;;27.10;19.50;;;17.00;94.10;;;;;;5009505;28;20058;-86
2021/09/23 09:19:42;;;;;;;24.83;17.77;;;17.00;94.00;;;;;;5015775;28;20029;-87
2021/09/23 09:22:09;;;;;;;23.95;16.45;;;17.10;94.10;;;;;;5010998;28;20034;-86
2021/09/23 09:24:53;;;;;;;22.52;16.20;;;17.10;94.10;;;;;;5017473;28;20053;-92
2021/09/23 09:27:40;;;;;;;30.65;19.25;;;17.20;94.10;;;;;;5033077;28;20500;-88
2021/09/23 09:30:24;;;;;;;23.25;16.50;;;17.20;94.00;;;;;;5030233;28;20115;-88
2021/09/23 09:32:57;;;;;;;19.15;13.70;;;17.30;94.00;;;;;;5017185;28;20026;-89
2021/09/23 09:35:30;;;;;;;23.23;15.13;;;17.30;93.90;;;;;;5032607;28;20026;-88
2021/09/23 09:37:58;;;;;;;17.65;13.02;;;17.30;93.60;;;;;;5016592;28;20053;-88
2021/09/23 09:40:27;;;;;;;21.48;13.65;;;17.40;93.60;;;;;;5014461;28;20093;-89
2021/09/23 09:42:54;;;;;;;17.13;12.45;;;17.40;93.50;;;;;;5057840;28;20010;-90
2021/09/23 09:45:28;;;;;;;20.38;12.77;;;17.40;93.30;;;;;;5058009;28;20038;-90
2021/09/23 09:47:55;;;;;;;20.27;13.30;;;17.50;93.10;;;;;;5035201;28;20056;-91
2021/09/23 09:50:24;;;;;;;17.95;12.65;;;17.60;93.10;;;;;;5044253;28;20006;-89
2021/09/23 09:52:58;;;;;;;19.25;14.05;;;17.60;93.10;;;;;;5074612;28;20028;-89
2021/09/23 09:55:27;;;;;;;19.35;13.07;;;17.60;93.00;;;;;;5056433;28;20025;-89
2021/09/23 09:57:54;;;;;;;18.80;12.93;;;17.70;93.20;;;;;;5059013;28;20022;-90
2021/09/23 10:00:21;;;;;;;17.92;12.98;;;17.80;93.10;;;;;;5021044;28;20100;-89
2021/09/23 10:02:47;;;;;;;16.73;13.13;;;17.90;93.00;;;;;;5018336;28;20422;-88
2021/09/23 10:05:14;;;;;;;17.50;12.43;;;18.00;92.70;;;;;;5034371;28;20087;-90
2021/09/23 10:07:44;;;;;;;16.15;11.73;;;18.10;92.70;;;;;;5024099;28;20026;-89
2021/09/23 10:10:11;;;;;;;17.65;13.05;;;18.20;92.50;;;;;;5031667;28;20513;-89
2021/09/23 10:12:42;;;;;;;21.70;11.98;;;18.30;92.00;;;;;;5014563;28;20112;-89
2021/09/23 10:15:15;;;;;;;20.63;14.00;;;18.40;92.00;;;;;;5031314;28;20018;-91
2021/09/23 10:17:42;;;;;;;19.60;13.90;;;18.50;91.80;;;;;;5011768;28;20483;-91
2021/09/23 10:20:09;;;;;;;18.75;13.43;;;18.50;91.60;;;;;;5011812;28;20501;-90
2021/09/23 10:22:36;;;;;;;16.95;12.85;;;18.50;91.40;;;;;;5031700;28;20332;-90
2021/09/23 10:25:05;;;;;;;18.15;12.85;;;18.60;91.40;;;;;;5017756;28;20026;-92
2021/09/23 10:30:17;;;;;;;19.65;12.40;;;18.60;91.20;;;;;;5007357;28;20077;-92
2021/09/23 10:32:47;;;;;;;14.23;10.63;;;18.70;91.20;;;;;;5014932;28;20092;-93
2021/09/23 10:35:23;;;;;;;14.70;10.45;;;18.70;91.30;;;;;;5015152;28;20026;-90
2021/09/23 10:37:52;;;;;;;14.57;10.43;;;18.70;91.40;;;;;;5037353;28;20053;-93
2021/09/23 10:40:19;;;;;;;15.70;10.20;;;18.80;91.40;;;;;;5033504;28;20029;-86
2021/09/23 10:42:46;;;;;;;15.40;9.77;;;18.80;91.30;;;;;;5030121;28;20034;-84
2021/09/23 10:45:14;;;;;;;12.55;10.10;;;18.80;91.20;;;;;;5013455;28;20052;-86
2021/09/23 10:47:43;;;;;;;12.38;8.27;;;18.80;90.90;;;;;;5005135;28;20093;-85
2021/09/23 10:50:09;;;;;;;11.88;8.50;;;18.80;90.90;;;;;;5029987;28;20029;-86
2021/09/23 10:52:36;;;;;;;11.02;7.53;;;18.80;90.80;;;;;;5032571;28;20048;-86
2021/09/23 10:55:04;;;;;;;15.38;8.82;;;18.80;90.80;;;;;;5029665;28;20680;-86
2021/09/23 10:57:31;;;;;;;11.15;7.65;;;18.80;90.70;;;;;;5053137;28;20029;-86
2021/09/23 11:00:00;;;;;;;12.57;7.82;;;18.80;90.70;;;;;;5008423;28;20099;-86
2021/09/23 11:02:28;;;;;;;8.88;6.82;;;18.90;90.90;;;;;;5053572;28;20475;-86
2021/09/23 11:04:57;;;;;;;13.02;6.60;;;18.90;90.80;;;;;;5053541;28;20457;-85
2021/09/23 11:07:25;;;;;;;10.23;7.25;;;18.90;91.20;;;;;;5053083;28;20021;-86
2021/09/23 11:10:07;;;;;;;9.10;6.78;;;18.90;90.80;;;;;;5018508;28;20036;-86
2021/09/23 11:12:34;;;;;;;13.20;7.68;;;19.00;90.80;;;;;;5033014;28;20350;-85
2021/09/23 11:15:03;;;;;;;12.02;6.03;;;19.00;90.50;;;;;;5046192;28;20458;-84
2021/09/23 11:17:29;;;;;;;10.23;5.50;;;19.00;90.50;;;;;;5015491;28;20465;-84
2021/09/23 11:20:06;;;;;;;10.98;5.38;;;19.00;90.60;;;;;;5038615;28;20111;-83
2021/09/23 11:22:36;;;;;;;11.02;6.40;;;19.00;90.40;;;;;;5035595;28;20025;-84
2021/09/23 11:25:09;;;;;;;8.88;4.97;;;19.00;90.30;;;;;;5021278;28;20049;-83
2021/09/23 11:27:37;;;;;;;8.75;4.80;;;19.00;90.40;;;;;;5052797;28;20025;-83
2021/09/23 11:30:05;;;;;;;8.40;4.85;;;19.00;90.20;;;;;;5053080;28;20470;-86
2021/09/23 11:32:31;;;;;;;10.70;4.93;;;19.00;90.00;;;;;;5011058;28;20026;-83
2021/09/23 11:35:00;;;;;;;10.00;4.60;;;19.00;89.90;;;;;;5029487;28;20029;-85
2021/09/23 11:37:31;;;;;;;11.25;4.68;;;19.10;90.00;;;;;;5034909;28;20051;-84
2021/09/23 11:40:05;;;;;;;8.98;4.07;;;19.10;90.00;;;;;;5021798;28;20056;-85
2021/09/23 11:42:35;;;;;;;9.20;4.13;;;19.10;89.80;;;;;;5023492;28;20017;-84
2021/09/23 11:45:28;;;;;;;7.43;3.80;;;19.10;89.90;;;;;;5032089;28;20109;-84
2021/09/23 11:48:00;;;;;;;6.28;3.20;;;19.20;89.30;;;;;;5014142;28;20389;-85
2021/09/23 11:50:42;;;;;;;9.27;3.30;;;19.20;89.40;;;;;;5032678;28;20029;-85
2021/09/23 11:53:25;;;;;;;5.55;3.08;;;19.20;89.40;;;;;;5004850;28;20474;-85
2021/09/23 11:56:03;;;;;;;8.63;3.67;;;19.30;88.90;;;;;;5033963;28;20065;-85
2021/09/23 11:58:31;;;;;;;7.05;3.83;;;19.40;88.30;;;;;;5036495;28;20060;-85
2021/09/23 12:00:57;;;;;;;7.63;3.70;;;19.40;88.20;;;;;;5037946;28;20108;-85
2021/09/23 12:03:24;;;;;;;6.45;2.90;;;19.50;87.90;;;;;;5036027;28;20116;-85
2021/09/23 12:05:52;;;;;;;7.72;3.10;;;19.70;88.30;;;;;;5021048;28;20029;-85
2021/09/23 12:08:26;;;;;;;7.82;3.25;;;19.80;87.60;;;;;;5036681;28;20029;-85
2021/09/23 12:11:05;;;;;;;7.03;3.17;;;19.80;86.20;;;;;;5036369;28;20550;-85
2021/09/23 12:13:43;;;;;;;6.97;3.00;;;19.90;85.90;;;;;;5023335;28;20021;-85
2021/09/23 12:16:11;;;;;;;6.55;2.90;;;20.00;85.20;;;;;;5036188;28;20044;-84
2021/09/23 12:18:38;;;;;;;8.05;3.72;;;20.00;85.40;;;;;;5036866;28;20037;-85
2021/09/23 12:21:22;;;;;;;9.60;3.70;;;20.00;85.10;;;;;;5016456;28;20033;-85
2021/09/23 12:23:52;;;;;;;10.20;3.60;;;20.10;85.10;;;;;;5028603;28;20034;-84
2021/09/23 12:26:20;;;;;;;;;;;20.10;84.60;;;;;;5019432;28;20021;-85
2021/09/23 12:29:01;;;;;;;5.03;2.80;;;20.10;85.30;;;;;;5036622;28;19905;-85
2021/09/23 12:31:27;;;;;;;8.60;3.50;;;20.20;85.10;;;;;;5036193;28;20052;-85
2021/09/23 12:33:56;;;;;;;6.75;3.65;;;20.20;84.70;;;;;;5025266;28;20026;-84
2021/09/23 12:36:44;;;;;;;8.30;3.38;;;20.20;84.20;;;;;;5015121;28;20025;-85